Time;durP1;ratioP1;P1;durP2;ratioP2;P2;SDS_P1;SDS_P2;PMS_P1;PMS_P2;Temp;Humidity;BMP_temperature;BMP_pressure;BME280_temperature;BME280_humidity;BME280_pressure;Samples;Min_cycle;Max_cycle;Signal;HPM_P1;HPM_P2
2022/06/17 00:00:20;;;;;;;3.97;3.53;;;22.10;99.90;;;;;;1039337;28;20094;-67
2022/06/17 00:00:54;;;;;;;3.83;3.10;;;22.30;99.90;;;;;;1039591;28;20414;-67
2022/06/17 00:01:27;;;;;;;4.72;3.45;;;22.10;99.90;;;;;;1039055;28;20018;-67
2022/06/17 00:01:57;;;;;;;4.00;3.40;;;22.10;99.90;;;;;;1039652;28;20028;-67
2022/06/17 00:02:29;;;;;;;3.20;2.80;;;22.00;99.90;;;;;;1038714;28;20445;-67
2022/06/17 00:02:59;;;;;;;4.53;3.28;;;22.10;99.90;;;;;;1039324;28;20010;-67
2022/06/17 00:03:32;;;;;;;3.40;3.03;;;22.10;99.90;;;;;;1039407;28;20041;-67
2022/06/17 00:04:03;;;;;;;3.53;3.13;;;22.10;99.90;;;;;;1039318;28;20068;-67
2022/06/17 00:04:33;;;;;;;4.50;3.47;;;22.10;99.90;;;;;;1039440;28;20104;-66
2022/06/17 00:05:04;;;;;;;3.57;2.70;;;22.00;99.90;;;;;;1043534;28;20127;-66
2022/06/17 00:05:35;;;;;;;3.53;2.90;;;22.10;99.90;;;;;;1043054;28;20040;-66
2022/06/17 00:06:06;;;;;;;3.93;3.37;;;22.10;99.90;;;;;;1043985;28;20027;-67
2022/06/17 00:06:43;;;;;;;3.63;3.28;;;22.00;99.90;;;;;;1043078;28;20021;-66
2022/06/17 00:07:15;;;;;;;3.30;2.90;;;22.10;99.90;;;;;;1043908;28;20104;-67
2022/06/17 00:07:45;;;;;;;4.97;3.38;;;22.10;99.90;;;;;;1043431;28;20607;-67
2022/06/17 00:08:20;;;;;;;3.27;2.90;;;22.00;99.90;;;;;;1043764;28;20021;-67
2022/06/17 00:08:53;;;;;;;4.25;3.33;;;22.10;99.90;;;;;;1043853;28;20021;-67
2022/06/17 00:09:26;;;;;;;3.20;2.50;;;22.10;99.90;;;;;;1043662;28;20024;-68
2022/06/17 00:09:56;;;;;;;2.97;2.65;;;22.10;99.90;;;;;;1043445;28;20013;-67
2022/06/17 00:10:27;;;;;;;5.03;2.93;;;22.10;99.90;;;;;;1043663;28;20096;-67
2022/06/17 00:10:58;;;;;;;6.78;3.35;;;22.10;99.90;;;;;;1043282;28;20059;-67
2022/06/17 00:11:35;;;;;;;4.30;3.17;;;22.10;99.90;;;;;;1043491;28;20020;-67
2022/06/17 00:12:11;;;;;;;3.70;3.38;;;22.10;99.90;;;;;;1043670;28;20013;-67
2022/06/17 00:12:41;;;;;;;4.88;3.30;;;22.10;99.90;;;;;;1043293;28;20021;-67
2022/06/17 00:13:15;;;;;;;3.73;3.23;;;22.10;99.90;;;;;;1043675;28;20084;-67
2022/06/17 00:13:45;;;;;;;6.00;3.25;;;22.00;99.90;;;;;;1043947;28;20013;-67
2022/06/17 00:14:21;;;;;;;4.53;3.40;;;22.00;99.90;;;;;;1043469;28;20048;-67
2022/06/17 00:15:41;;;;;;;3.20;2.90;;;22.00;99.90;;;;;;1043795;28;20082;-67
2022/06/17 00:16:14;;;;;;;4.18;3.55;;;22.00;99.90;;;;;;1043576;28;20128;-68
2022/06/17 00:16:45;;;;;;;3.55;2.90;;;22.00;99.90;;;;;;1043873;28;20143;-67
2022/06/17 00:17:16;;;;;;;4.72;3.22;;;22.00;99.90;;;;;;1043685;28;20135;-67
2022/06/17 00:17:54;;;;;;;4.10;3.30;;;22.00;99.90;;;;;;1039157;28;20009;-67
2022/06/17 00:18:25;;;;;;;3.58;3.25;;;22.00;99.90;;;;;;1039277;28;20021;-67
2022/06/17 00:18:56;;;;;;;3.60;3.07;;;22.00;99.90;;;;;;1039435;28;20017;-67
2022/06/17 00:19:27;;;;;;;3.80;2.90;;;22.00;99.90;;;;;;1039039;28;20023;-67
2022/06/17 00:19:58;;;;;;;3.40;3.00;;;22.00;99.90;;;;;;1039348;28;20026;-67
2022/06/17 00:20:30;;;;;;;4.25;3.40;;;22.00;99.90;;;;;;1038898;28;20012;-67
2022/06/17 00:21:03;;;;;;;3.50;3.20;;;22.00;99.90;;;;;;1039204;28;20017;-67
2022/06/17 00:21:39;;;;;;;4.47;3.08;;;22.00;99.90;;;;;;1039628;28;20089;-67
2022/06/17 00:22:11;;;;;;;3.75;2.90;;;22.00;99.90;;;;;;1043016;28;20021;-67
2022/06/17 00:22:43;;;;;;;4.22;3.42;;;22.00;99.90;;;;;;1043643;28;20096;-67
2022/06/17 00:23:24;;;;;;;6.82;2.75;;;22.00;99.90;;;;;;1043330;28;20028;-67
2022/06/17 00:23:55;;;;;;;3.75;2.78;;;22.00;99.90;;;;;;1043957;28;20035;-69
2022/06/17 00:24:30;;;;;;;6.68;3.10;;;22.00;99.90;;;;;;1043603;28;20021;-67
2022/06/17 00:25:01;;;;;;;3.53;3.22;;;22.00;99.90;;;;;;1043875;28;20013;-67
2022/06/17 00:25:34;;;;;;;3.43;3.00;;;21.80;99.90;;;;;;1038831;28;20018;-67
2022/06/17 00:26:05;;;;;;;3.75;3.35;;;21.90;99.90;;;;;;1039288;28;20017;-68
2022/06/17 00:26:35;;;;;;;3.97;2.80;;;21.90;99.90;;;;;;1039479;28;20017;-68
2022/06/17 00:27:13;;;;;;;4.50;3.23;;;21.90;99.90;;;;;;1043519;28;20021;-67
2022/06/17 00:27:43;;;;;;;4.55;3.03;;;21.90;99.90;;;;;;1043683;28;20071;-66
2022/06/17 00:28:20;;;;;;;3.60;2.87;;;21.90;99.90;;;;;;1043558;28;20079;-67
2022/06/17 00:28:52;;;;;;;3.75;2.90;;;;;;;;;;1043657;28;20028;-67
2022/06/17 00:29:27;;;;;;;3.55;3.15;;;22.00;99.90;;;;;;1043477;28;20443;-67
2022/06/17 00:29:58;;;;;;;4.32;3.22;;;21.90;99.90;;;;;;1043370;28;20040;-66
2022/06/17 00:30:32;;;;;;;4.03;3.10;;;21.90;99.90;;;;;;1043417;28;20022;-67
2022/06/17 00:31:02;;;;;;;6.03;3.13;;;22.00;99.90;;;;;;1043299;28;20072;-66
2022/06/17 00:31:33;;;;;;;3.33;3.00;;;21.90;99.90;;;;;;1043164;28;20166;-67
2022/06/17 00:32:04;;;;;;;4.90;3.10;;;21.90;99.90;;;;;;1043612;28;20013;-67
2022/06/17 00:32:34;;;;;;;3.20;2.90;;;21.90;99.90;;;;;;1043075;28;20013;-67
2022/06/17 00:33:06;;;;;;;3.50;3.00;;;21.90;99.90;;;;;;1043570;28;20033;-67
2022/06/17 00:33:37;;;;;;;2.75;2.55;;;21.90;99.90;;;;;;1038904;28;20076;-67
2022/06/17 00:34:07;;;;;;;4.07;3.10;;;21.90;99.90;;;;;;1039036;28;20155;-67
2022/06/17 00:34:38;;;;;;;3.27;2.93;;;21.90;99.90;;;;;;1039777;28;20026;-67
2022/06/17 00:35:10;;;;;;;3.40;2.40;;;21.90;99.90;;;;;;1043098;28;20017;-66
2022/06/17 00:35:47;;;;;;;3.17;2.88;;;22.30;99.90;;;;;;1044103;28;20032;-67
2022/06/17 00:36:18;;;;;;;3.60;3.30;;;21.90;99.90;;;;;;1043209;28;20150;-68
2022/06/17 00:36:56;;;;;;;3.35;2.78;;;21.90;99.90;;;;;;1043644;28;20025;-71
2022/06/17 00:37:27;;;;;;;3.25;2.80;;;21.90;99.90;;;;;;1043262;28;20654;-67
2022/06/17 00:37:58;;;;;;;5.80;3.40;;;21.90;99.90;;;;;;1040105;28;20026;-67
2022/06/17 00:38:32;;;;;;;3.67;2.80;;;21.90;99.90;;;;;;1038830;28;20657;-67
2022/06/17 00:39:12;;;;;;;3.72;3.33;;;21.90;99.90;;;;;;1039150;28;20100;-67
2022/06/17 00:39:42;;;;;;;4.60;3.15;;;21.90;99.90;;;;;;1039799;28;20124;-67
2022/06/17 00:40:22;;;;;;;4.10;3.03;;;21.90;99.90;;;;;;1038846;28;20017;-67
2022/06/17 00:40:53;;;;;;;4.40;3.30;;;21.90;99.90;;;;;;1039657;28;20026;-67
2022/06/17 00:41:26;;;;;;;3.35;2.70;;;21.90;99.90;;;;;;1039266;28;20053;-67
2022/06/17 00:42:03;;;;;;;3.55;2.90;;;21.90;99.90;;;;;;1039200;28;20021;-68
2022/06/17 00:42:35;;;;;;;3.88;2.55;;;21.90;99.90;;;;;;1038932;28;20507;-67
2022/06/17 00:43:22;;;;;;;4.05;3.08;;;21.90;99.90;;;;;;1039372;28;20032;-67
2022/06/17 00:43:54;;;;;;;3.63;3.00;;;;;;;;;;1039543;28;20546;-66
2022/06/17 00:44:45;;;;;;;3.72;2.97;;;;;;;;;;1039191;28;20270;-67
2022/06/17 00:45:25;;;;;;;3.63;3.15;;;21.90;99.90;;;;;;1039167;28;20041;-67
2022/06/17 00:46:09;;;;;;;4.25;3.08;;;21.90;99.90;;;;;;1040026;28;20029;-66
2022/06/17 00:46:58;;;;;;;4.30;3.05;;;21.90;99.90;;;;;;1038786;28;20040;-67
2022/06/17 00:47:31;;;;;;;4.78;2.83;;;21.90;99.90;;;;;;1039345;28;20036;-67
2022/06/17 00:48:11;;;;;;;2.75;2.50;;;21.90;99.90;;;;;;1043537;28;20158;-67
2022/06/17 00:49:10;;;;;;;4.25;3.05;;;21.90;99.90;;;;;;1043057;28;20104;-67
2022/06/17 00:49:49;;;;;;;3.65;3.20;;;21.90;99.90;;;;;;1043273;28;20025;-67
2022/06/17 00:50:22;;;;;;;4.80;3.20;;;21.90;99.90;;;;;;1043488;28;20013;-66
2022/06/17 00:50:59;;;;;;;4.10;3.15;;;21.90;99.90;;;;;;1043716;28;20379;-66
2022/06/17 00:51:38;;;;;;;3.35;3.05;;;21.90;99.90;;;;;;1043253;28;20023;-66
2022/06/17 00:52:13;;;;;;;;;;;21.90;99.90;;;;;;1043652;28;20033;-66
2022/06/17 00:52:59;;;;;;;3.75;3.30;;;21.90;99.90;;;;;;1043118;28;19916;-66
2022/06/17 00:53:38;;;;;;;3.60;3.08;;;21.90;99.90;;;;;;1043612;28;20437;-67
2022/06/17 00:54:23;;;;;;;3.40;3.10;;;21.80;99.90;;;;;;1043175;28;20598;-66
2022/06/17 00:55:05;;;;;;;3.08;2.85;;;21.90;99.90;;;;;;1043099;28;20055;-67
2022/06/17 00:55:42;;;;;;;4.32;2.83;;;21.90;99.90;;;;;;1038726;28;20579;-66
2022/06/17 00:56:34;;;;;;;3.42;3.08;;;21.80;99.90;;;;;;1043461;28;20577;-68
2022/06/17 00:57:41;;;;;;;2.88;2.58;;;21.90;99.90;;;;;;1043255;28;20021;-66
2022/06/17 00:58:29;;;;;;;4.13;3.15;;;;;;;;;;1043312;28;20022;-68
2022/06/17 00:59:09;;;;;;;4.63;3.20;;;21.80;99.90;;;;;;1043655;28;20392;-67
2022/06/17 00:59:40;;;;;;;4.72;2.70;;;21.80;99.90;;;;;;1043614;28;20017;-67
2022/06/17 01:00:11;;;;;;;3.05;2.63;;;21.80;99.90;;;;;;1038925;28;20072;-66
2022/06/17 01:00:43;;;;;;;2.97;2.67;;;21.80;99.90;;;;;;1039260;28;20170;-65
2022/06/17 01:01:13;;;;;;;4.53;3.00;;;21.80;99.90;;;;;;1039294;28;20259;-67
2022/06/17 01:02:01;;;;;;;4.20;3.00;;;21.80;99.90;;;;;;1039773;28;20124;-66
2022/06/17 01:02:33;;;;;;;;;;;21.80;99.90;;;;;;1042554;28;20025;-67
2022/06/17 01:03:12;;;;;;;5.32;3.53;;;21.80;99.90;;;;;;1039569;28;20384;-66
2022/06/17 01:03:44;;;;;;;3.15;2.67;;;21.80;99.90;;;;;;1041682;28;20029;-68
2022/06/17 01:04:19;;;;;;;3.47;2.70;;;20.60;99.90;;;;;;1042799;28;20095;-66
2022/06/17 01:04:50;;;;;;;3.10;2.60;;;21.80;99.90;;;;;;1043154;28;20045;-66
2022/06/17 01:05:29;;;;;;;3.33;3.03;;;21.80;99.90;;;;;;1043186;28;20025;-67
2022/06/17 01:06:08;;;;;;;3.58;3.13;;;21.80;99.90;;;;;;1043629;28;20017;-66
2022/06/17 01:06:43;;;;;;;4.53;3.05;;;21.80;99.90;;;;;;1040527;28;20045;-66
2022/06/17 01:07:20;;;;;;;3.92;3.00;;;21.80;99.90;;;;;;1038987;28;20033;-67
2022/06/17 01:07:58;;;;;;;3.15;2.85;;;21.80;99.90;;;;;;1038896;28;20057;-69
2022/06/17 01:10:19;;;;;;;4.30;2.78;;;21.80;99.90;;;;;;1039645;28;20082;-67
2022/06/17 01:10:49;;;;;;;3.47;2.72;;;21.80;99.90;;;;;;1039490;28;20529;-67
2022/06/17 01:11:23;;;;;;;3.30;3.00;;;21.80;99.90;;;;;;1039683;28;20008;-67
2022/06/17 01:11:59;;;;;;;4.75;3.05;;;21.80;99.90;;;;;;1039481;28;20009;-67
2022/06/17 01:12:54;;;;;;;3.75;2.92;;;21.70;99.90;;;;;;1039205;28;20021;-67
2022/06/17 01:13:24;;;;;;;4.78;2.80;;;21.70;99.90;;;;;;1039535;28;20113;-67
2022/06/17 01:13:56;;;;;;;3.13;2.83;;;21.70;99.90;;;;;;1038738;28;20025;-67
2022/06/17 01:14:27;;;;;;;3.50;2.80;;;21.70;99.90;;;;;;1039458;28;20013;-67
2022/06/17 01:14:58;;;;;;;3.67;2.78;;;21.70;99.90;;;;;;1038810;28;20014;-67
2022/06/17 01:15:33;;;;;;;5.28;3.25;;;21.70;99.90;;;;;;1038886;28;20022;-67
2022/06/17 01:16:05;;;;;;;4.32;2.90;;;21.70;99.90;;;;;;1039515;28;20044;-67
2022/06/17 01:16:38;;;;;;;3.42;2.63;;;21.70;99.90;;;;;;1039589;28;20013;-68
2022/06/17 01:17:13;;;;;;;3.92;2.88;;;21.70;99.90;;;;;;1039215;28;20020;-68
2022/06/17 01:17:45;;;;;;;3.60;2.70;;;21.80;99.90;;;;;;1039063;28;20049;-67
2022/06/17 01:18:15;;;;;;;3.53;2.72;;;21.80;99.90;;;;;;1039119;28;20006;-68
2022/06/17 01:18:47;;;;;;;3.10;2.80;;;21.80;99.90;;;;;;1039034;28;20017;-67
2022/06/17 01:19:33;;;;;;;3.83;2.90;;;21.80;99.90;;;;;;1039144;28;20900;-68
2022/06/17 01:20:05;;;;;;;4.55;2.75;;;21.80;99.90;;;;;;1038756;28;20017;-66
2022/06/17 01:20:39;;;;;;;4.20;3.15;;;21.80;99.90;;;;;;1038904;28;20010;-67
2022/06/17 01:21:25;;;;;;;3.47;3.17;;;21.80;99.90;;;;;;1038901;28;20014;-67
2022/06/17 01:22:26;;;;;;;5.85;2.50;;;21.80;99.90;;;;;;1042574;28;20052;-67
2022/06/17 01:23:00;;;;;;;2.92;2.63;;;21.80;99.90;;;;;;1039013;28;20103;-67
2022/06/17 01:23:31;;;;;;;2.85;2.63;;;21.80;99.90;;;;;;1039010;28;20006;-66
2022/06/17 01:24:02;;;;;;;3.95;3.10;;;21.70;99.90;;;;;;1039258;28;20869;-67
2022/06/17 01:24:35;;;;;;;4.28;3.03;;;21.70;99.90;;;;;;1039776;28;20010;-67
2022/06/17 01:25:14;;;;;;;3.70;2.97;;;21.80;99.90;;;;;;1039717;28;20096;-67
2022/06/17 01:25:47;;;;;;;3.83;3.20;;;21.70;99.90;;;;;;1043112;28;20024;-67
2022/06/17 01:26:18;;;;;;;3.63;2.80;;;21.70;99.90;;;;;;1043179;28;20468;-67
2022/06/17 01:26:48;;;;;;;3.33;2.80;;;21.70;99.90;;;;;;1040615;28;20018;-67
2022/06/17 01:27:22;;;;;;;4.63;3.40;;;21.70;99.90;;;;;;1043343;28;20542;-67
2022/06/17 01:27:57;;;;;;;3.83;2.70;;;21.70;99.90;;;;;;1043050;28;20032;-67
2022/06/17 01:28:27;;;;;;;5.63;3.60;;;21.70;99.90;;;;;;1039717;28;20318;-67
2022/06/17 01:28:58;;;;;;;2.93;2.63;;;21.70;99.90;;;;;;1043371;28;20503;-66
2022/06/17 01:29:29;;;;;;;4.03;2.97;;;21.70;99.90;;;;;;1042893;28;20020;-68
2022/06/17 01:30:00;;;;;;;4.30;3.03;;;21.70;99.90;;;;;;1043572;28;20085;-67
2022/06/17 01:30:38;;;;;;;3.85;3.20;;;21.70;99.90;;;;;;1043107;28;20568;-67
2022/06/17 01:31:09;;;;;;;3.33;2.88;;;21.70;99.90;;;;;;1043873;28;20025;-70
2022/06/17 01:31:47;;;;;;;2.80;2.57;;;21.70;99.90;;;;;;1042864;28;20072;-67
2022/06/17 01:32:22;;;;;;;3.00;2.72;;;21.70;99.90;;;;;;1043719;28;20021;-67
2022/06/17 01:32:59;;;;;;;5.25;2.80;;;21.70;99.90;;;;;;1042764;28;20013;-67
2022/06/17 01:33:35;;;;;;;3.95;3.03;;;21.70;99.90;;;;;;1041209;28;20503;-67
2022/06/17 01:34:07;;;;;;;5.10;3.25;;;21.70;99.90;;;;;;1043574;28;20029;-67
2022/06/17 01:34:39;;;;;;;3.83;3.15;;;21.70;99.90;;;;;;1042899;28;20025;-68
2022/06/17 01:35:11;;;;;;;3.65;2.80;;;21.70;99.90;;;;;;1043298;28;20047;-67
2022/06/17 01:35:46;;;;;;;4.65;3.10;;;21.70;99.90;;;;;;1042934;28;20131;-67
2022/06/17 01:36:21;;;;;;;3.65;3.13;;;21.70;99.90;;;;;;1043348;28;20102;-68
2022/06/17 01:36:54;;;;;;;3.78;2.92;;;21.70;99.90;;;;;;1043228;28;20021;-67
2022/06/17 01:37:25;;;;;;;4.35;3.28;;;21.70;99.90;;;;;;1043850;28;20021;-66
2022/06/17 01:37:57;;;;;;;3.85;2.72;;;21.80;99.90;;;;;;1042847;28;20043;-67
2022/06/17 01:38:30;;;;;;;2.85;2.65;;;21.70;99.90;;;;;;1042996;28;20096;-67
2022/06/17 01:39:00;;;;;;;3.47;2.63;;;21.60;99.90;;;;;;1043153;28;20017;-68
2022/06/17 01:39:31;;;;;;;3.07;2.77;;;21.60;99.90;;;;;;1043013;28;20021;-67
2022/06/17 01:40:02;;;;;;;4.70;3.10;;;21.60;99.90;;;;;;1043568;28;20017;-67
2022/06/17 01:40:33;;;;;;;3.55;2.70;;;21.60;99.90;;;;;;1043270;28;20024;-67
2022/06/17 01:41:04;;;;;;;4.93;3.47;;;21.60;99.90;;;;;;1042807;28;20092;-67
2022/06/17 01:41:35;;;;;;;3.17;2.75;;;21.60;99.90;;;;;;1043238;28;20029;-67
2022/06/17 01:42:06;;;;;;;5.33;3.80;;;21.60;99.90;;;;;;1042904;28;20024;-67
2022/06/17 01:42:38;;;;;;;3.55;3.10;;;21.60;99.90;;;;;;1043317;28;20439;-67
2022/06/17 01:43:14;;;;;;;4.05;2.70;;;21.60;99.90;;;;;;1042614;28;20041;-68
2022/06/17 01:43:45;;;;;;;4.22;2.95;;;21.60;99.90;;;;;;1043269;28;20282;-68
2022/06/17 01:44:22;;;;;;;5.93;3.13;;;21.60;99.90;;;;;;1039563;28;20040;-67
2022/06/17 01:44:54;;;;;;;4.03;2.80;;;21.60;99.90;;;;;;1039029;28;20473;-67
2022/06/17 01:45:24;;;;;;;4.97;3.00;;;21.60;99.90;;;;;;1038887;28;20021;-67
2022/06/17 01:46:01;;;;;;;3.53;2.80;;;21.60;99.90;;;;;;1038999;28;20028;-67
2022/06/17 01:46:36;;;;;;;2.92;2.50;;;21.60;99.90;;;;;;1038435;28;20025;-68
2022/06/17 01:47:13;;;;;;;3.95;3.15;;;21.60;99.90;;;;;;1038961;28;20105;-67
2022/06/17 01:47:45;;;;;;;3.70;2.92;;;21.60;99.90;;;;;;1039109;28;20021;-67
2022/06/17 01:48:18;;;;;;;3.00;2.70;;;21.60;99.90;;;;;;1038988;28;20017;-67
2022/06/17 01:48:59;;;;;;;3.58;2.88;;;21.60;99.90;;;;;;1039334;28;20564;-67
2022/06/17 01:49:58;;;;;;;3.60;3.00;;;21.60;99.90;;;;;;1039152;28;20009;-66
2022/06/17 01:50:30;;;;;;;5.15;4.00;;;21.60;99.90;;;;;;1038735;28;20303;-66
2022/06/17 01:51:03;;;;;;;4.35;3.30;;;21.50;99.90;;;;;;1039501;28;20112;-66
2022/06/17 01:51:37;;;;;;;3.40;2.95;;;21.50;99.90;;;;;;1038847;28;20031;-66
2022/06/17 01:52:13;;;;;;;3.63;2.88;;;21.50;99.90;;;;;;1039670;28;20389;-66
2022/06/17 01:52:55;;;;;;;3.25;2.90;;;21.50;99.90;;;;;;1038845;28;20025;-72
2022/06/17 01:53:30;;;;;;;4.43;2.88;;;21.50;99.90;;;;;;1039314;28;20049;-67
2022/06/17 01:54:06;;;;;;;2.72;2.50;;;21.50;99.90;;;;;;1039097;28;20660;-65
2022/06/17 01:54:45;;;;;;;3.22;2.92;;;21.50;99.90;;;;;;1039150;28;20018;-65
2022/06/17 01:55:24;;;;;;;4.85;2.55;;;21.50;99.90;;;;;;1039321;28;20653;-66
2022/06/17 01:56:03;;;;;;;4.70;2.85;;;21.50;99.90;;;;;;1038315;28;20017;-65
2022/06/17 01:56:37;;;;;;;2.75;2.55;;;21.50;99.90;;;;;;1039023;28;20120;-66
2022/06/17 01:57:10;;;;;;;3.95;2.85;;;21.60;99.90;;;;;;1039019;28;20025;-66
2022/06/17 01:57:49;;;;;;;4.78;3.35;;;21.60;99.90;;;;;;1038925;28;20112;-67
2022/06/17 01:58:23;;;;;;;;;;;21.50;99.90;;;;;;1039424;28;20022;-65
2022/06/17 01:59:02;;;;;;;4.22;3.10;;;21.50;99.90;;;;;;1034669;28;20617;-66
2022/06/17 01:59:51;;;;;;;3.35;3.05;;;21.60;99.90;;;;;;1030891;28;20053;-67
2022/06/17 02:00:25;;;;;;;3.03;2.63;;;21.50;99.90;;;;;;1034655;28;20044;-65
2022/06/17 02:00:57;;;;;;;3.80;2.65;;;21.50;99.90;;;;;;1038961;28;20022;-67
2022/06/17 02:01:31;;;;;;;4.38;3.03;;;21.50;99.90;;;;;;1039169;28;20021;-67
2022/06/17 02:02:04;;;;;;;3.83;3.08;;;21.50;99.90;;;;;;1039278;28;20087;-66
2022/06/17 02:02:36;;;;;;;3.45;2.88;;;21.50;99.90;;;;;;1040325;28;20385;-66
2022/06/17 02:03:15;;;;;;;3.70;3.33;;;21.50;99.90;;;;;;1042788;28;20025;-66
2022/06/17 02:04:15;;;;;;;4.95;3.40;;;21.50;99.90;;;;;;1042998;28;20033;-67
2022/06/17 02:04:57;;;;;;;3.42;2.60;;;21.50;99.90;;;;;;1043550;28;20119;-67
2022/06/17 02:05:33;;;;;;;5.00;2.70;;;21.50;99.90;;;;;;1043018;28;20025;-67
2022/06/17 02:06:11;;;;;;;2.88;2.42;;;21.50;99.90;;;;;;1043652;28;20400;-67
2022/06/17 02:07:11;;;;;;;3.55;3.10;;;21.50;99.90;;;;;;1043291;28;20552;-67
2022/06/17 02:07:55;;;;;;;4.00;3.10;;;21.50;99.90;;;;;;1043303;28;20096;-67
2022/06/17 02:08:25;;;;;;;3.03;2.63;;;21.50;99.90;;;;;;1043401;28;20021;-67
2022/06/17 02:08:56;;;;;;;3.17;2.83;;;21.50;99.90;;;;;;1043707;28;20448;-67
2022/06/17 02:09:27;;;;;;;3.97;2.92;;;21.50;99.90;;;;;;1042810;28;20023;-67
2022/06/17 02:09:58;;;;;;;3.33;2.90;;;21.50;99.90;;;;;;1043313;28;20064;-67
2022/06/17 02:10:32;;;;;;;4.00;3.08;;;21.40;99.90;;;;;;1042755;28;20013;-67
2022/06/17 02:11:05;;;;;;;3.53;3.22;;;21.40;99.90;;;;;;1043053;28;20021;-67
2022/06/17 02:11:36;;;;;;;3.10;2.80;;;21.40;99.90;;;;;;1042555;28;20416;-67
2022/06/17 02:12:07;;;;;;;3.43;3.13;;;21.40;99.90;;;;;;1042933;28;20479;-67
2022/06/17 02:12:38;;;;;;;3.72;2.90;;;21.40;99.90;;;;;;1042934;28;20032;-67
2022/06/17 02:13:11;;;;;;;3.40;3.10;;;21.40;99.90;;;;;;1039069;28;20493;-67
2022/06/17 02:13:41;;;;;;;4.28;2.92;;;21.40;99.90;;;;;;1039535;28;20048;-67
2022/06/17 02:14:13;;;;;;;4.27;2.87;;;21.40;99.90;;;;;;1043000;28;20013;-67
2022/06/17 02:14:46;;;;;;;3.45;2.75;;;21.40;99.90;;;;;;1042694;28;20071;-67
2022/06/17 02:15:19;;;;;;;3.58;3.00;;;21.40;99.90;;;;;;1043230;28;20063;-66
2022/06/17 02:15:52;;;;;;;3.42;2.60;;;21.40;99.90;;;;;;1042722;28;20036;-66
2022/06/17 02:16:23;;;;;;;3.67;3.25;;;21.40;99.90;;;;;;1043279;28;20009;-67
2022/06/17 02:16:54;;;;;;;4.30;2.70;;;21.40;99.90;;;;;;1042830;28;20025;-67
2022/06/17 02:17:29;;;;;;;3.67;3.38;;;;;;;;;;1043400;28;20056;-66
2022/06/17 02:18:01;;;;;;;4.78;2.83;;;21.60;99.90;;;;;;1043550;28;20024;-66
2022/06/17 02:18:33;;;;;;;4.45;3.17;;;21.40;99.90;;;;;;1043065;28;20070;-66
2022/06/17 02:19:04;;;;;;;3.80;3.20;;;21.40;99.90;;;;;;1043344;28;20492;-67
2022/06/17 02:19:37;;;;;;;5.05;3.40;;;21.40;99.90;;;;;;1043094;28;20028;-67
2022/06/17 02:20:10;;;;;;;4.15;3.17;;;21.40;99.90;;;;;;1042864;28;20020;-66
2022/06/17 02:20:41;;;;;;;6.18;2.90;;;21.40;99.90;;;;;;1043439;28;20012;-67
2022/06/17 02:21:24;;;;;;;3.45;2.90;;;21.40;99.90;;;;;;1043112;28;20021;-67
2022/06/17 02:22:01;;;;;;;3.45;3.10;;;21.30;99.90;;;;;;1043297;28;20630;-66
2022/06/17 02:22:35;;;;;;;4.03;3.05;;;21.30;99.90;;;;;;1043395;28;20091;-65
2022/06/17 02:23:06;;;;;;;3.53;2.95;;;21.40;99.90;;;;;;1043195;28;20032;-65
2022/06/17 02:23:37;;;;;;;3.63;3.00;;;21.40;99.90;;;;;;1043381;28;20013;-65
2022/06/17 02:24:10;;;;;;;3.73;3.13;;;21.30;99.90;;;;;;1043370;28;20021;-67
2022/06/17 02:24:42;;;;;;;3.53;2.83;;;21.30;99.90;;;;;;1042717;28;20618;-67
2022/06/17 02:25:18;;;;;;;3.50;3.00;;;21.30;99.90;;;;;;1038595;28;20040;-67
2022/06/17 02:25:51;;;;;;;3.15;2.80;;;21.30;99.90;;;;;;1039237;28;20053;-67
2022/06/17 02:26:24;;;;;;;3.25;2.95;;;21.40;99.90;;;;;;1040038;28;20572;-68
2022/06/17 02:26:58;;;;;;;3.75;3.45;;;21.40;99.90;;;;;;1040416;28;20405;-68
2022/06/17 02:27:32;;;;;;;4.65;3.28;;;21.40;99.90;;;;;;1042334;28;20433;-66
2022/06/17 02:28:05;;;;;;;3.88;3.20;;;21.40;99.90;;;;;;1043324;28;20021;-67
2022/06/17 02:28:36;;;;;;;4.90;3.65;;;21.30;99.90;;;;;;1042470;28;20025;-66
2022/06/17 02:29:10;;;;;;;4.03;3.63;;;21.40;99.90;;;;;;1043415;28;20013;-67
2022/06/17 02:29:42;;;;;;;3.55;2.80;;;21.30;99.90;;;;;;1042973;28;20037;-65
2022/06/17 02:30:14;;;;;;;3.22;2.85;;;21.40;99.90;;;;;;1043184;28;20016;-66
2022/06/17 02:30:48;;;;;;;3.92;3.53;;;21.00;99.90;;;;;;1043282;28;20017;-65
2022/06/17 02:31:19;;;;;;;3.00;2.65;;;21.30;99.90;;;;;;1043375;28;20147;-66
2022/06/17 02:31:50;;;;;;;3.03;2.60;;;21.30;99.90;;;;;;1043368;28;20028;-67
2022/06/17 02:32:20;;;;;;;3.10;2.80;;;21.30;99.90;;;;;;1043326;28;20029;-66
2022/06/17 02:32:53;;;;;;;4.80;3.33;;;21.40;99.90;;;;;;1043036;28;20025;-67
2022/06/17 02:33:26;;;;;;;3.17;2.67;;;21.40;99.90;;;;;;1043602;28;20021;-67
2022/06/17 02:33:57;;;;;;;3.70;2.90;;;21.40;99.90;;;;;;1042652;28;20499;-66
2022/06/17 02:34:29;;;;;;;4.65;2.90;;;21.40;99.90;;;;;;1042630;28;20140;-67
2022/06/17 02:35:10;;;;;;;3.25;2.95;;;21.40;99.90;;;;;;1042802;28;20071;-66
2022/06/17 02:35:48;;;;;;;3.65;3.20;;;21.40;99.90;;;;;;1042839;28;20090;-69
2022/06/17 02:36:32;;;;;;;5.10;3.28;;;21.40;99.90;;;;;;1043077;28;20135;-66
2022/06/17 02:37:12;;;;;;;4.65;3.15;;;21.40;99.90;;;;;;1043382;28;20399;-66
2022/06/17 02:37:43;;;;;;;3.45;3.10;;;21.40;99.90;;;;;;1043050;28;20017;-66
2022/06/17 02:38:17;;;;;;;3.17;2.87;;;21.40;99.90;;;;;;1042972;28;20044;-66
2022/06/17 02:38:47;;;;;;;3.88;3.08;;;21.40;99.90;;;;;;1043209;28;20060;-66
2022/06/17 02:39:19;;;;;;;4.00;3.53;;;21.40;99.90;;;;;;1043358;28;20027;-68
2022/06/17 02:39:51;;;;;;;3.90;3.10;;;21.40;99.90;;;;;;1043129;28;20036;-66
2022/06/17 02:40:36;;;;;;;4.20;3.72;;;21.40;99.90;;;;;;1043220;28;20512;-66
2022/06/17 02:41:12;;;;;;;3.35;3.05;;;21.40;99.90;;;;;;1043342;28;20024;-66
2022/06/17 02:41:46;;;;;;;3.83;3.45;;;21.40;99.90;;;;;;1043306;28;20454;-67
2022/06/17 02:42:23;;;;;;;3.58;3.13;;;21.30;99.90;;;;;;1043035;28;20555;-66
2022/06/17 02:42:54;;;;;;;3.47;3.08;;;21.30;99.90;;;;;;1043117;28;20472;-67
2022/06/17 02:43:28;;;;;;;4.70;3.20;;;21.30;99.90;;;;;;1043126;28;20017;-68
2022/06/17 02:44:16;;;;;;;3.53;3.20;;;21.30;99.90;;;;;;1040596;28;20449;-67
2022/06/17 02:44:52;;;;;;;3.67;2.92;;;21.30;99.90;;;;;;1039787;28;20404;-67
2022/06/17 02:45:26;;;;;;;4.25;3.30;;;21.30;99.90;;;;;;1038847;28;20014;-67
2022/06/17 02:46:05;;;;;;;3.75;3.15;;;21.30;99.90;;;;;;1039361;28;20041;-67
2022/06/17 02:46:40;;;;;;;4.53;2.75;;;21.30;99.90;;;;;;1038972;28;20028;-67
2022/06/17 02:47:11;;;;;;;7.22;3.10;;;21.30;99.90;;;;;;1039469;28;20057;-67
2022/06/17 02:47:43;;;;;;;3.70;3.15;;;21.30;99.90;;;;;;1039080;28;20013;-69
2022/06/17 02:48:26;;;;;;;3.97;3.20;;;21.30;99.90;;;;;;1038845;28;20017;-67
2022/06/17 02:49:07;;;;;;;3.00;2.70;;;21.30;99.90;;;;;;1039908;28;20017;-67
2022/06/17 02:49:40;;;;;;;4.40;2.88;;;21.20;99.90;;;;;;1038863;28;20025;-70
2022/06/17 02:50:17;;;;;;;5.70;3.47;;;21.20;99.90;;;;;;1039344;28;20565;-67
2022/06/17 02:50:49;;;;;;;3.65;2.97;;;21.20;99.90;;;;;;1038926;28;20018;-67
2022/06/17 02:51:22;;;;;;;3.47;3.03;;;21.20;99.90;;;;;;1039395;28;20028;-67
2022/06/17 02:51:53;;;;;;;3.17;2.88;;;21.20;99.90;;;;;;1038525;28;20102;-67
2022/06/17 02:52:35;;;;;;;4.17;3.60;;;21.20;99.90;;;;;;1038773;28;20407;-66
2022/06/17 02:53:06;;;;;;;5.63;3.53;;;21.20;99.90;;;;;;1038979;28;20276;-67
2022/06/17 02:53:38;;;;;;;4.00;3.47;;;21.30;99.90;;;;;;1035852;28;20014;-67
2022/06/17 02:54:16;;;;;;;3.97;3.35;;;21.20;99.90;;;;;;1039166;28;20013;-67
2022/06/17 02:55:00;;;;;;;4.95;3.05;;;21.20;99.90;;;;;;1038721;28;20702;-68
2022/06/17 02:55:37;;;;;;;4.25;3.38;;;21.20;99.90;;;;;;1038789;28;20060;-67
2022/06/17 02:56:30;;;;;;;5.03;3.58;;;21.20;99.90;;;;;;1038827;28;20021;-67
2022/06/17 02:57:02;;;;;;;3.65;3.17;;;21.20;99.90;;;;;;1038540;28;20045;-67
2022/06/17 02:57:33;;;;;;;4.85;3.13;;;20.60;99.90;;;;;;1038935;28;20152;-67
2022/06/17 02:58:33;;;;;;;3.53;3.23;;;21.20;99.90;;;;;;1038631;28;20116;-67
2022/06/17 02:59:36;;;;;;;3.83;3.10;;;21.20;99.90;;;;;;1042245;28;20100;-67
2022/06/17 03:00:11;;;;;;;3.97;3.58;;;21.20;99.90;;;;;;1042734;28;20091;-67
2022/06/17 03:00:43;;;;;;;3.80;3.15;;;21.20;99.90;;;;;;1042853;28;20021;-67
2022/06/17 03:01:26;;;;;;;4.28;3.33;;;21.20;99.90;;;;;;1042708;28;20349;-66
2022/06/17 03:02:02;;;;;;;3.97;3.58;;;21.20;99.90;;;;;;1042858;28;20017;-66
2022/06/17 03:02:38;;;;;;;3.28;2.97;;;20.70;99.90;;;;;;1043231;28;20056;-68
2022/06/17 03:03:13;;;;;;;3.15;2.83;;;21.20;99.90;;;;;;1043531;28;20017;-66
2022/06/17 03:03:45;;;;;;;4.97;3.15;;;21.20;99.90;;;;;;1043733;28;20038;-66
2022/06/17 03:04:22;;;;;;;3.72;3.25;;;21.20;99.90;;;;;;1043953;28;20430;-66
2022/06/17 03:04:54;;;;;;;3.45;3.13;;;21.20;99.90;;;;;;1044146;28;20058;-66
2022/06/17 03:05:29;;;;;;;3.28;2.90;;;21.20;99.90;;;;;;1044245;28;20016;-66
2022/06/17 03:06:00;;;;;;;4.43;3.38;;;21.20;99.90;;;;;;1044101;28;20097;-66
2022/06/17 03:06:37;;;;;;;4.53;3.47;;;21.20;99.90;;;;;;1043768;28;20028;-66